sensor_id;sensor_type;location;lat;lon;timestamp;temperature;humidity
69944;DHT22;57257;48.408;-4.498;2024-03-23T00:55:03;10.74;61.22
69944;DHT22;57257;48.408;-4.498;2024-03-23T00:57:29;10.74;61.07
69944;DHT22;57257;48.408;-4.498;2024-03-23T00:59:54;10.71;60.86
69944;DHT22;57257;48.408;-4.498;2024-03-23T01:02:19;10.71;60.96
69944;DHT22;57257;48.408;-4.498;2024-03-23T01:04:45;10.70;60.89
69944;DHT22;57257;48.408;-4.498;2024-03-23T01:07:11;10.68;60.83
69944;DHT22;57257;48.408;-4.498;2024-03-23T01:09:36;10.70;60.94
69944;DHT22;57257;48.408;-4.498;2024-03-23T01:12:04;10.67;60.89
69944;DHT22;57257;48.408;-4.498;2024-03-23T01:14:29;10.65;60.36
69944;DHT22;57257;48.408;-4.498;2024-03-23T01:16:55;10.65;58.68
69944;DHT22;57257;48.408;-4.498;2024-03-23T01:19:20;10.63;58.11
69944;DHT22;57257;48.408;-4.498;2024-03-23T01:21:45;10.63;57.76
69944;DHT22;57257;48.408;-4.498;2024-03-23T01:24:11;10.60;57.45
69944;DHT22;57257;48.408;-4.498;2024-03-23T01:26:36;10.56;57.71
69944;DHT22;57257;48.408;-4.498;2024-03-23T01:29:02;10.53;57.92
69944;DHT22;57257;48.408;-4.498;2024-03-23T01:31:27;10.54;58.23
69944;DHT22;57257;48.408;-4.498;2024-03-23T01:33:53;10.51;58.47
69944;DHT22;57257;48.408;-4.498;2024-03-23T01:36:18;10.50;58.73
69944;DHT22;57257;48.408;-4.498;2024-03-23T01:38:44;10.49;59.00
69944;DHT22;57257;48.408;-4.498;2024-03-23T01:41:10;10.49;59.21
69944;DHT22;57257;48.408;-4.498;2024-03-23T01:43:35;10.47;59.52
69944;DHT22;57257;48.408;-4.498;2024-03-23T01:46:01;10.43;59.81
69944;DHT22;57257;48.408;-4.498;2024-03-23T01:48:26;10.46;59.97
69944;DHT22;57257;48.408;-4.498;2024-03-23T01:50:52;10.40;60.14
69944;DHT22;57257;48.408;-4.498;2024-03-23T01:53:18;10.44;60.26
69944;DHT22;57257;48.408;-4.498;2024-03-23T01:55:47;10.49;60.40
69944;DHT22;57257;48.408;-4.498;2024-03-23T01:58:12;10.47;60.43
69944;DHT22;57257;48.408;-4.498;2024-03-23T02:00:38;10.49;60.54
69944;DHT22;57257;48.408;-4.498;2024-03-23T02:03:22;10.53;60.64
69944;DHT22;57257;48.408;-4.498;2024-03-23T02:05:48;10.51;60.70
69944;DHT22;57257;48.408;-4.498;2024-03-23T02:08:13;10.50;60.82
69944;DHT22;57257;48.408;-4.498;2024-03-23T02:10:39;10.49;60.89
69944;DHT22;57257;48.408;-4.498;2024-03-23T02:13:05;10.50;61.02
69944;DHT22;57257;48.408;-4.498;2024-03-23T02:15:30;10.51;61.35
69944;DHT22;57257;48.408;-4.498;2024-03-23T02:17:55;10.51;61.79
69944;DHT22;57257;48.408;-4.498;2024-03-23T02:20:21;10.44;61.99
69944;DHT22;57257;48.408;-4.498;2024-03-23T02:22:46;10.46;62.25
69944;DHT22;57257;48.408;-4.498;2024-03-23T02:25:11;10.44;62.27
69944;DHT22;57257;48.408;-4.498;2024-03-23T02:27:37;10.40;62.12
69944;DHT22;57257;48.408;-4.498;2024-03-23T02:30:04;10.40;62.08
69944;DHT22;57257;48.408;-4.498;2024-03-23T02:32:30;10.41;61.99
69944;DHT22;57257;48.408;-4.498;2024-03-23T02:34:55;10.36;61.79
69944;DHT22;57257;48.408;-4.498;2024-03-23T02:37:20;10.36;61.45
69944;DHT22;57257;48.408;-4.498;2024-03-23T02:39:46;10.30;61.26
69944;DHT22;57257;48.408;-4.498;2024-03-23T02:42:11;10.28;60.92
69944;DHT22;57257;48.408;-4.498;2024-03-23T02:44:37;10.23;60.51
69944;DHT22;57257;48.408;-4.498;2024-03-23T02:47:02;10.23;60.33
69944;DHT22;57257;48.408;-4.498;2024-03-23T02:49:27;10.19;60.38
69944;DHT22;57257;48.408;-4.498;2024-03-23T02:51:53;10.16;60.26
69944;DHT22;57257;48.408;-4.498;2024-03-23T02:54:18;10.13;60.42
69944;DHT22;57257;48.408;-4.498;2024-03-23T02:56:44;10.09;60.58
69944;DHT22;57257;48.408;-4.498;2024-03-23T02:59:09;10.13;60.78
69944;DHT22;57257;48.408;-4.498;2024-03-23T03:01:35;10.13;61.01
69944;DHT22;57257;48.408;-4.498;2024-03-23T03:04:00;10.16;61.24
69944;DHT22;57257;48.408;-4.498;2024-03-23T03:06:26;10.17;61.47
69944;DHT22;57257;48.408;-4.498;2024-03-23T03:08:52;10.19;61.59
69944;DHT22;57257;48.408;-4.498;2024-03-23T03:11:17;10.20;61.75
69944;DHT22;57257;48.408;-4.498;2024-03-23T03:13:43;10.21;61.80
69944;DHT22;57257;48.408;-4.498;2024-03-23T03:16:10;10.28;61.76
69944;DHT22;57257;48.408;-4.498;2024-03-23T03:18:35;10.29;61.75
69944;DHT22;57257;48.408;-4.498;2024-03-23T03:21:00;10.30;61.59
69944;DHT22;57257;48.408;-4.498;2024-03-23T03:23:26;10.32;61.60
69944;DHT22;57257;48.408;-4.498;2024-03-23T03:25:52;10.32;61.48
69944;DHT22;57257;48.408;-4.498;2024-03-23T03:28:17;10.29;60.95
69944;DHT22;57257;48.408;-4.498;2024-03-23T03:30:43;10.24;60.66
69944;DHT22;57257;48.408;-4.498;2024-03-23T03:33:08;10.24;60.84
69944;DHT22;57257;48.408;-4.498;2024-03-23T03:35:33;10.21;60.27
69944;DHT22;57257;48.408;-4.498;2024-03-23T03:37:59;10.19;60.05
69944;DHT22;57257;48.408;-4.498;2024-03-23T03:40:24;10.16;59.97
69944;DHT22;57257;48.408;-4.498;2024-03-23T03:42:50;10.12;59.88
69944;DHT22;57257;48.408;-4.498;2024-03-23T03:45:15;10.12;60.04
69944;DHT22;57257;48.408;-4.498;2024-03-23T03:47:41;10.08;59.97
69944;DHT22;57257;48.408;-4.498;2024-03-23T03:50:06;10.06;60.13
69944;DHT22;57257;48.408;-4.498;2024-03-23T03:52:32;10.05;60.30
69944;DHT22;57257;48.408;-4.498;2024-03-23T03:55:01;10.03;60.42
69944;DHT22;57257;48.408;-4.498;2024-03-23T03:57:30;9.99;60.76
69944;DHT22;57257;48.408;-4.498;2024-03-23T03:59:56;9.99;61.00
69944;DHT22;57257;48.408;-4.498;2024-03-23T04:02:21;9.98;61.15
69944;DHT22;57257;48.408;-4.498;2024-03-23T04:04:47;9.93;61.26
69944;DHT22;57257;48.408;-4.498;2024-03-23T04:07:12;9.93;61.37
69944;DHT22;57257;48.408;-4.498;2024-03-23T04:09:38;9.92;61.52
69944;DHT22;57257;48.408;-4.498;2024-03-23T04:12:03;9.93;61.65
69944;DHT22;57257;48.408;-4.498;2024-03-23T04:14:29;9.95;61.62
69944;DHT22;57257;48.408;-4.498;2024-03-23T04:16:54;9.92;61.62
69944;DHT22;57257;48.408;-4.498;2024-03-23T04:19:20;9.92;61.63
69944;DHT22;57257;48.408;-4.498;2024-03-23T04:21:46;9.95;61.56
69944;DHT22;57257;48.408;-4.498;2024-03-23T04:24:11;9.93;61.50
69944;DHT22;57257;48.408;-4.498;2024-03-23T04:26:41;9.93;61.47
69944;DHT22;57257;48.408;-4.498;2024-03-23T04:29:06;9.95;61.53
69944;DHT22;57257;48.408;-4.498;2024-03-23T04:31:32;9.93;61.57
69944;DHT22;57257;48.408;-4.498;2024-03-23T04:34:00;9.96;61.48
69944;DHT22;57257;48.408;-4.498;2024-03-23T04:36:25;9.98;61.53
69944;DHT22;57257;48.408;-4.498;2024-03-23T04:38:51;9.98;61.48
69944;DHT22;57257;48.408;-4.498;2024-03-23T04:41:17;9.99;61.61
69944;DHT22;57257;48.408;-4.498;2024-03-23T04:43:43;10.03;61.59
69944;DHT22;57257;48.408;-4.498;2024-03-23T04:46:08;10.02;61.61
69944;DHT22;57257;48.408;-4.498;2024-03-23T04:48:34;10.02;61.70
69944;DHT22;57257;48.408;-4.498;2024-03-23T04:50:59;10.00;61.82
69944;DHT22;57257;48.408;-4.498;2024-03-23T04:53:25;10.00;61.85
69944;DHT22;57257;48.408;-4.498;2024-03-23T04:55:56;9.99;62.03
69944;DHT22;57257;48.408;-4.498;2024-03-23T04:58:24;10.00;62.26
69944;DHT22;57257;48.408;-4.498;2024-03-23T05:00:56;10.00;62.19
69944;DHT22;57257;48.408;-4.498;2024-03-23T05:03:22;10.03;62.39
69944;DHT22;57257;48.408;-4.498;2024-03-23T05:05:48;10.03;62.38
69944;DHT22;57257;48.408;-4.498;2024-03-23T05:08:14;10.06;62.39
69944;DHT22;57257;48.408;-4.498;2024-03-23T05:10:42;10.05;62.44
69944;DHT22;57257;48.408;-4.498;2024-03-23T05:13:07;10.03;62.61
69944;DHT22;57257;48.408;-4.498;2024-03-23T05:15:33;10.05;62.60
69944;DHT22;57257;48.408;-4.498;2024-03-23T05:17:58;10.08;62.50
69944;DHT22;57257;48.408;-4.498;2024-03-23T05:20:23;10.06;62.50
69944;DHT22;57257;48.408;-4.498;2024-03-23T05:22:49;10.08;62.55
69944;DHT22;57257;48.408;-4.498;2024-03-23T05:25:16;10.10;62.52
69944;DHT22;57257;48.408;-4.498;2024-03-23T05:27:41;10.08;62.45
69944;DHT22;57257;48.408;-4.498;2024-03-23T05:30:07;10.09;62.41
69944;DHT22;57257;48.408;-4.498;2024-03-23T05:32:34;10.09;62.39
69944;DHT22;57257;48.408;-4.498;2024-03-23T05:34:59;10.09;62.34
69944;DHT22;57257;48.408;-4.498;2024-03-23T05:37:25;10.08;62.16
69944;DHT22;57257;48.408;-4.498;2024-03-23T05:39:51;10.09;62.09
69944;DHT22;57257;48.408;-4.498;2024-03-23T05:42:17;10.09;61.98
69944;DHT22;57257;48.408;-4.498;2024-03-23T05:44:46;10.08;61.89
69944;DHT22;57257;48.408;-4.498;2024-03-23T05:47:12;10.06;61.71
69944;DHT22;57257;48.408;-4.498;2024-03-23T05:49:45;10.08;61.37
69944;DHT22;57257;48.408;-4.498;2024-03-23T05:52:11;10.03;61.26
69944;DHT22;57257;48.408;-4.498;2024-03-23T05:54:37;10.03;61.17
69944;DHT22;57257;48.408;-4.498;2024-03-23T05:57:03;10.03;61.26
69944;DHT22;57257;48.408;-4.498;2024-03-23T05:59:29;10.05;61.16
69944;DHT22;57257;48.408;-4.498;2024-03-23T06:01:54;10.06;61.04
69944;DHT22;57257;48.408;-4.498;2024-03-23T06:04:20;10.05;61.00
69944;DHT22;57257;48.408;-4.498;2024-03-23T06:06:46;10.08;61.07
69944;DHT22;57257;48.408;-4.498;2024-03-23T06:09:12;10.09;61.11
69944;DHT22;57257;48.408;-4.498;2024-03-23T06:11:37;10.10;61.26
69944;DHT22;57257;48.408;-4.498;2024-03-23T06:14:03;10.14;61.32
69944;DHT22;57257;48.408;-4.498;2024-03-23T06:16:29;10.14;61.32
69944;DHT22;57257;48.408;-4.498;2024-03-23T06:18:56;10.13;61.23
69944;DHT22;57257;48.408;-4.498;2024-03-23T06:21:21;10.14;61.33
69944;DHT22;57257;48.408;-4.498;2024-03-23T06:23:51;10.12;61.26
69944;DHT22;57257;48.408;-4.498;2024-03-23T06:26:20;10.13;61.38
69944;DHT22;57257;48.408;-4.498;2024-03-23T06:28:49;10.13;61.51
69944;DHT22;57257;48.408;-4.498;2024-03-23T06:31:14;10.12;61.66
69944;DHT22;57257;48.408;-4.498;2024-03-23T06:33:40;10.14;61.75
69944;DHT22;57257;48.408;-4.498;2024-03-23T06:36:09;10.16;61.80
69944;DHT22;57257;48.408;-4.498;2024-03-23T06:38:34;10.17;61.92
69944;DHT22;57257;48.408;-4.498;2024-03-23T06:41:02;10.20;62.17
69944;DHT22;57257;48.408;-4.498;2024-03-23T06:43:28;10.24;62.26
69944;DHT22;57257;48.408;-4.498;2024-03-23T06:45:54;10.32;62.38
69944;DHT22;57257;48.408;-4.498;2024-03-23T06:48:20;10.46;62.42
69944;DHT22;57257;48.408;-4.498;2024-03-23T06:50:46;10.59;62.04
69944;DHT22;57257;48.408;-4.498;2024-03-23T06:53:12;10.73;61.81
69944;DHT22;57257;48.408;-4.498;2024-03-23T06:55:38;10.91;61.69
69944;DHT22;57257;48.408;-4.498;2024-03-23T06:58:03;11.15;61.30
69944;DHT22;57257;48.408;-4.498;2024-03-23T07:00:29;11.28;60.66
69944;DHT22;57257;48.408;-4.498;2024-03-23T07:02:54;11.36;60.38
69944;DHT22;57257;48.408;-4.498;2024-03-23T07:05:20;11.46;60.27
69944;DHT22;57257;48.408;-4.498;2024-03-23T07:07:45;11.56;60.11
69944;DHT22;57257;48.408;-4.498;2024-03-23T07:10:11;11.66;59.93
69944;DHT22;57257;48.408;-4.498;2024-03-23T07:12:36;11.82;59.82
69944;DHT22;57257;48.408;-4.498;2024-03-23T07:15:02;11.96;59.70
69944;DHT22;57257;48.408;-4.498;2024-03-23T07:17:27;12.04;59.41
69944;DHT22;57257;48.408;-4.498;2024-03-23T07:19:53;12.09;59.31
69944;DHT22;57257;48.408;-4.498;2024-03-23T07:22:18;12.12;59.09
69944;DHT22;57257;48.408;-4.498;2024-03-23T07:24:44;12.22;58.86
69944;DHT22;57257;48.408;-4.498;2024-03-23T07:27:09;12.36;58.62
69944;DHT22;57257;48.408;-4.498;2024-03-23T07:29:36;12.48;58.40
69944;DHT22;57257;48.408;-4.498;2024-03-23T07:32:02;12.58;57.70
69944;DHT22;57257;48.408;-4.498;2024-03-23T07:34:27;12.63;57.51
69944;DHT22;57257;48.408;-4.498;2024-03-23T07:36:53;12.74;57.65
69944;DHT22;57257;48.408;-4.498;2024-03-23T07:39:18;12.83;57.21
69944;DHT22;57257;48.408;-4.498;2024-03-23T07:41:46;12.92;57.09
69944;DHT22;57257;48.408;-4.498;2024-03-23T07:44:12;13.02;56.59
69944;DHT22;57257;48.408;-4.498;2024-03-23T07:46:37;13.12;56.23
69944;DHT22;57257;48.408;-4.498;2024-03-23T07:49:06;13.23;56.42
69944;DHT22;57257;48.408;-4.498;2024-03-23T07:51:31;13.39;56.41
69944;DHT22;57257;48.408;-4.498;2024-03-23T07:53:58;13.58;55.82
69944;DHT22;57257;48.408;-4.498;2024-03-23T07:56:23;13.69;55.60
69944;DHT22;57257;48.408;-4.498;2024-03-23T07:58:49;13.89;54.80
69944;DHT22;57257;48.408;-4.498;2024-03-23T08:01:15;13.89;54.73
69944;DHT22;57257;48.408;-4.498;2024-03-23T08:03:43;13.86;54.61
69944;DHT22;57257;48.408;-4.498;2024-03-23T08:08:39;13.42;55.68
69944;DHT22;57257;48.408;-4.498;2024-03-23T08:11:06;13.16;55.85
69944;DHT22;57257;48.408;-4.498;2024-03-23T08:13:32;12.95;56.18
69944;DHT22;57257;48.408;-4.498;2024-03-23T08:15:59;12.83;56.69
69944;DHT22;57257;48.408;-4.498;2024-03-23T08:18:25;12.80;56.73
69944;DHT22;57257;48.408;-4.498;2024-03-23T08:20:58;12.78;56.32
69944;DHT22;57257;48.408;-4.498;2024-03-23T08:23:27;12.77;56.61
69944;DHT22;57257;48.408;-4.498;2024-03-23T08:26:03;12.77;56.10
69944;DHT22;57257;48.408;-4.498;2024-03-23T08:28:29;12.67;55.84
69944;DHT22;57257;48.408;-4.498;2024-03-23T08:30:56;12.74;56.15
69944;DHT22;57257;48.408;-4.498;2024-03-23T08:33:22;13.07;55.94
69944;DHT22;57257;48.408;-4.498;2024-03-23T08:36:01;13.34;54.87
69944;DHT22;57257;48.408;-4.498;2024-03-23T08:38:28;13.53;55.13
69944;DHT22;57257;48.408;-4.498;2024-03-23T08:41:03;13.66;54.39
69944;DHT22;57257;48.408;-4.498;2024-03-23T08:43:30;13.73;54.11
69944;DHT22;57257;48.408;-4.498;2024-03-23T08:46:10;13.89;54.46
69944;DHT22;57257;48.408;-4.498;2024-03-23T08:48:40;14.12;54.97
69944;DHT22;57257;48.408;-4.498;2024-03-23T08:51:09;14.31;54.46
69944;DHT22;57257;48.408;-4.498;2024-03-23T08:53:35;14.42;53.98
69944;DHT22;57257;48.408;-4.498;2024-03-23T08:56:01;14.42;54.48
69944;DHT22;57257;48.408;-4.498;2024-03-23T08:58:28;14.54;53.83
69944;DHT22;57257;48.408;-4.498;2024-03-23T09:00:56;14.57;53.88
69944;DHT22;57257;48.408;-4.498;2024-03-23T09:03:25;14.38;54.85
69944;DHT22;57257;48.408;-4.498;2024-03-23T09:05:51;14.24;56.22
69944;DHT22;57257;48.408;-4.498;2024-03-23T09:08:18;14.14;56.58
69944;DHT22;57257;48.408;-4.498;2024-03-23T09:10:43;14.06;57.45
69944;DHT22;57257;48.408;-4.498;2024-03-23T09:13:09;14.07;57.90
69944;DHT22;57257;48.408;-4.498;2024-03-23T09:15:36;14.06;58.29
69944;DHT22;57257;48.408;-4.498;2024-03-23T09:18:02;14.24;57.95
69944;DHT22;57257;48.408;-4.498;2024-03-23T09:20:28;14.34;57.34
69944;DHT22;57257;48.408;-4.498;2024-03-23T09:22:54;14.60;57.12
69944;DHT22;57257;48.408;-4.498;2024-03-23T09:25:19;14.75;55.88
69944;DHT22;57257;48.408;-4.498;2024-03-23T09:27:48;14.88;56.00
69944;DHT22;57257;48.408;-4.498;2024-03-23T09:30:14;14.99;55.73
69944;DHT22;57257;48.408;-4.498;2024-03-23T09:32:44;15.15;55.72
69944;DHT22;57257;48.408;-4.498;2024-03-23T09:35:09;15.18;53.48
69944;DHT22;57257;48.408;-4.498;2024-03-23T09:37:35;15.20;53.78
69944;DHT22;57257;48.408;-4.498;2024-03-23T09:40:01;15.30;53.74
69944;DHT22;57257;48.408;-4.498;2024-03-23T09:42:26;15.40;53.72
69944;DHT22;57257;48.408;-4.498;2024-03-23T09:44:52;15.39;52.90
69944;DHT22;57257;48.408;-4.498;2024-03-23T09:47:17;15.33;52.20
69944;DHT22;57257;48.408;-4.498;2024-03-23T09:49:43;15.20;52.57
69944;DHT22;57257;48.408;-4.498;2024-03-23T09:52:09;15.29;53.46
69944;DHT22;57257;48.408;-4.498;2024-03-23T09:54:35;15.38;52.58
69944;DHT22;57257;48.408;-4.498;2024-03-23T09:57:01;15.29;51.61
69944;DHT22;57257;48.408;-4.498;2024-03-23T09:59:26;15.30;51.96
69944;DHT22;57257;48.408;-4.498;2024-03-23T10:01:53;15.09;51.82
69944;DHT22;57257;48.408;-4.498;2024-03-23T10:04:37;15.05;53.06
69944;DHT22;57257;48.408;-4.498;2024-03-23T10:07:18;15.32;54.03
69944;DHT22;57257;48.408;-4.498;2024-03-23T10:09:44;15.64;55.09
69944;DHT22;57257;48.408;-4.498;2024-03-23T10:12:11;15.76;54.80
69944;DHT22;57257;48.408;-4.498;2024-03-23T10:14:38;15.90;55.61
69944;DHT22;57257;48.408;-4.498;2024-03-23T10:17:21;15.94;53.40
69944;DHT22;57257;48.408;-4.498;2024-03-23T10:19:50;15.87;53.18
69944;DHT22;57257;48.408;-4.498;2024-03-23T10:22:20;15.74;53.65
69944;DHT22;57257;48.408;-4.498;2024-03-23T10:24:47;15.57;53.96
69944;DHT22;57257;48.408;-4.498;2024-03-23T10:27:17;15.46;54.48
69944;DHT22;57257;48.408;-4.498;2024-03-23T10:29:43;15.35;53.73
69944;DHT22;57257;48.408;-4.498;2024-03-23T10:32:13;15.35;54.52
69944;DHT22;57257;48.408;-4.498;2024-03-23T10:34:39;15.49;54.08
69944;DHT22;57257;48.408;-4.498;2024-03-23T10:37:06;15.54;52.94
69944;DHT22;57257;48.408;-4.498;2024-03-23T10:39:33;15.53;53.71
69944;DHT22;57257;48.408;-4.498;2024-03-23T10:42:02;15.54;53.50
69944;DHT22;57257;48.408;-4.498;2024-03-23T10:44:28;15.69;53.42
69944;DHT22;57257;48.408;-4.498;2024-03-23T10:46:55;15.80;53.55
69944;DHT22;57257;48.408;-4.498;2024-03-23T10:49:26;15.93;52.31
69944;DHT22;57257;48.408;-4.498;2024-03-23T10:51:52;16.03;51.92
69944;DHT22;57257;48.408;-4.498;2024-03-23T10:54:19;16.22;52.47
69944;DHT22;57257;48.408;-4.498;2024-03-23T10:56:45;16.24;51.02
69944;DHT22;57257;48.408;-4.498;2024-03-23T10:59:12;16.11;50.97
69944;DHT22;57257;48.408;-4.498;2024-03-23T11:02:00;15.89;51.53
69944;DHT22;57257;48.408;-4.498;2024-03-23T11:06:57;15.76;52.66
69944;DHT22;57257;48.408;-4.498;2024-03-23T11:09:38;15.80;51.90
69944;DHT22;57257;48.408;-4.498;2024-03-23T11:15:04;16.06;50.96
69944;DHT22;57257;48.408;-4.498;2024-03-23T11:17:30;16.11;51.59
69944;DHT22;57257;48.408;-4.498;2024-03-23T11:19:57;16.29;51.79
69944;DHT22;57257;48.408;-4.498;2024-03-23T11:25:23;15.57;53.88
69944;DHT22;57257;48.408;-4.498;2024-03-23T11:27:52;14.98;55.34
69944;DHT22;57257;48.408;-4.498;2024-03-23T11:30:19;14.54;56.96
69944;DHT22;57257;48.408;-4.498;2024-03-23T11:32:46;14.35;57.08
69944;DHT22;57257;48.408;-4.498;2024-03-23T11:35:32;14.24;57.86
69944;DHT22;57257;48.408;-4.498;2024-03-23T11:38:05;14.30;58.38
69944;DHT22;57257;48.408;-4.498;2024-03-23T11:40:32;14.33;58.85
69944;DHT22;57257;48.408;-4.498;2024-03-23T11:43:02;14.41;58.16
69944;DHT22;57257;48.408;-4.498;2024-03-23T11:45:28;14.48;58.60
69944;DHT22;57257;48.408;-4.498;2024-03-23T11:48:14;14.45;58.67
69944;DHT22;57257;48.408;-4.498;2024-03-23T11:50:41;14.33;58.51
69944;DHT22;57257;48.408;-4.498;2024-03-23T11:53:17;14.13;58.53
69944;DHT22;57257;48.408;-4.498;2024-03-23T11:55:54;13.99;58.93
69944;DHT22;57257;48.408;-4.498;2024-03-23T11:58:21;13.83;59.45
69944;DHT22;57257;48.408;-4.498;2024-03-23T12:00:59;13.89;60.10
69944;DHT22;57257;48.408;-4.498;2024-03-23T12:03:26;14.00;60.42
69944;DHT22;57257;48.408;-4.498;2024-03-23T12:05:54;14.12;60.94
69944;DHT22;57257;48.408;-4.498;2024-03-23T12:08:31;14.34;61.25
69944;DHT22;57257;48.408;-4.498;2024-03-23T12:11:17;14.49;60.80
69944;DHT22;57257;48.408;-4.498;2024-03-23T12:13:44;14.63;61.21
69944;DHT22;57257;48.408;-4.498;2024-03-23T12:16:15;14.63;60.42
69944;DHT22;57257;48.408;-4.498;2024-03-23T12:18:43;14.35;59.88
69944;DHT22;57257;48.408;-4.498;2024-03-23T12:21:08;14.12;59.77
69944;DHT22;57257;48.408;-4.498;2024-03-23T12:23:34;13.89;59.96
69944;DHT22;57257;48.408;-4.498;2024-03-23T12:26:00;13.91;60.78
69944;DHT22;57257;48.408;-4.498;2024-03-23T12:28:25;13.89;60.57
69944;DHT22;57257;48.408;-4.498;2024-03-23T12:30:51;13.91;59.79
69944;DHT22;57257;48.408;-4.498;2024-03-23T12:33:20;13.97;60.11
69944;DHT22;57257;48.408;-4.498;2024-03-23T12:35:46;14.04;60.23
69944;DHT22;57257;48.408;-4.498;2024-03-23T12:38:11;14.07;60.27
69944;DHT22;57257;48.408;-4.498;2024-03-23T12:40:37;14.20;60.16
69944;DHT22;57257;48.408;-4.498;2024-03-23T12:43:02;14.33;60.20
69944;DHT22;57257;48.408;-4.498;2024-03-23T12:45:28;14.45;59.83
69944;DHT22;57257;48.408;-4.498;2024-03-23T12:47:53;14.54;59.12
69944;DHT22;57257;48.408;-4.498;2024-03-23T12:50:19;14.61;59.17
69944;DHT22;57257;48.408;-4.498;2024-03-23T12:52:45;14.61;58.29
69944;DHT22;57257;48.408;-4.498;2024-03-23T12:55:10;14.58;58.06
69944;DHT22;57257;48.408;-4.498;2024-03-23T12:57:36;14.64;58.08
69944;DHT22;57257;48.408;-4.498;2024-03-23T13:00:01;14.78;61.19
69944;DHT22;57257;48.408;-4.498;2024-03-23T13:02:28;15.15;60.94
69944;DHT22;57257;48.408;-4.498;2024-03-23T13:04:54;15.56;59.41
69944;DHT22;57257;48.408;-4.498;2024-03-23T13:07:21;15.70;56.21
69944;DHT22;57257;48.408;-4.498;2024-03-23T13:09:46;15.73;56.26
69944;DHT22;57257;48.408;-4.498;2024-03-23T13:12:12;15.73;55.43
69944;DHT22;57257;48.408;-4.498;2024-03-23T13:14:38;15.70;55.43
69944;DHT22;57257;48.408;-4.498;2024-03-23T13:17:05;15.86;56.62
69944;DHT22;57257;48.408;-4.498;2024-03-23T13:19:30;16.04;56.48
69944;DHT22;57257;48.408;-4.498;2024-03-23T13:22:00;16.22;56.05
69944;DHT22;57257;48.408;-4.498;2024-03-23T13:24:28;16.28;54.71
69944;DHT22;57257;48.408;-4.498;2024-03-23T13:26:55;16.20;53.71
69944;DHT22;57257;48.408;-4.498;2024-03-23T13:29:22;16.04;54.03
69944;DHT22;57257;48.408;-4.498;2024-03-23T13:31:48;16.07;55.33
69944;DHT22;57257;48.408;-4.498;2024-03-23T13:34:13;16.24;54.74
69944;DHT22;57257;48.408;-4.498;2024-03-23T13:36:43;16.28;54.05
69944;DHT22;57257;48.408;-4.498;2024-03-23T13:39:08;16.31;54.01
69944;DHT22;57257;48.408;-4.498;2024-03-23T13:41:41;16.41;54.27
69944;DHT22;57257;48.408;-4.498;2024-03-23T13:44:07;16.51;54.45
69944;DHT22;57257;48.408;-4.498;2024-03-23T13:46:33;16.61;53.42
69944;DHT22;57257;48.408;-4.498;2024-03-23T13:48:59;16.57;53.67
69944;DHT22;57257;48.408;-4.498;2024-03-23T13:51:25;16.52;53.39
69944;DHT22;57257;48.408;-4.498;2024-03-23T13:53:54;16.45;53.11
69944;DHT22;57257;48.408;-4.498;2024-03-23T13:56:20;16.37;54.67
69944;DHT22;57257;48.408;-4.498;2024-03-23T13:58:46;16.55;54.98
69944;DHT22;57257;48.408;-4.498;2024-03-23T14:01:15;16.71;54.98
69944;DHT22;57257;48.408;-4.498;2024-03-23T14:03:42;16.88;54.66
69944;DHT22;57257;48.408;-4.498;2024-03-23T14:06:08;16.92;54.04
69944;DHT22;57257;48.408;-4.498;2024-03-23T14:08:37;16.76;52.54
69944;DHT22;57257;48.408;-4.498;2024-03-23T14:11:07;16.59;53.81
69944;DHT22;57257;48.408;-4.498;2024-03-23T14:13:34;16.79;53.18
69944;DHT22;57257;48.408;-4.498;2024-03-23T14:16:00;16.88;51.64
69944;DHT22;57257;48.408;-4.498;2024-03-23T14:18:25;16.95;52.71
69944;DHT22;57257;48.408;-4.498;2024-03-23T14:20:58;16.99;52.60
69944;DHT22;57257;48.408;-4.498;2024-03-23T14:23:25;16.96;53.42
69944;DHT22;57257;48.408;-4.498;2024-03-23T14:25:53;17.03;53.22
69944;DHT22;57257;48.408;-4.498;2024-03-23T14:28:19;17.23;52.96
69944;DHT22;57257;48.408;-4.498;2024-03-23T14:30:44;17.37;51.41
69944;DHT22;57257;48.408;-4.498;2024-03-23T14:33:09;17.40;49.53
69944;DHT22;57257;48.408;-4.498;2024-03-23T14:35:35;17.44;49.86
69944;DHT22;57257;48.408;-4.498;2024-03-23T14:38:01;17.54;50.07
69944;DHT22;57257;48.408;-4.498;2024-03-23T14:40:27;17.66;49.83
69944;DHT22;57257;48.408;-4.498;2024-03-23T14:42:53;17.78;49.48
69944;DHT22;57257;48.408;-4.498;2024-03-23T14:45:22;17.90;49.84
69944;DHT22;57257;48.408;-4.498;2024-03-23T14:47:50;17.87;49.87
69944;DHT22;57257;48.408;-4.498;2024-03-23T14:50:15;17.74;49.71
69944;DHT22;57257;48.408;-4.498;2024-03-23T14:52:45;17.29;48.75
69944;DHT22;57257;48.408;-4.498;2024-03-23T14:55:11;17.36;49.71
69944;DHT22;57257;48.408;-4.498;2024-03-23T14:57:37;17.27;49.18
69944;DHT22;57257;48.408;-4.498;2024-03-23T15:00:06;17.47;48.78
69944;DHT22;57257;48.408;-4.498;2024-03-23T15:02:31;17.73;49.69
69944;DHT22;57257;48.408;-4.498;2024-03-23T15:04:58;18.35;47.51
69944;DHT22;57257;48.408;-4.498;2024-03-23T15:07:23;18.75;46.48
69944;DHT22;57257;48.408;-4.498;2024-03-23T15:09:49;18.47;45.75
69944;DHT22;57257;48.408;-4.498;2024-03-23T15:12:14;18.08;44.82
69944;DHT22;57257;48.408;-4.498;2024-03-23T15:17:51;18.49;45.41
69944;DHT22;57257;48.408;-4.498;2024-03-23T15:20:17;18.22;44.69
69944;DHT22;57257;48.408;-4.498;2024-03-23T15:22:43;17.71;45.65
69944;DHT22;57257;48.408;-4.498;2024-03-23T15:25:08;17.22;46.70
69944;DHT22;57257;48.408;-4.498;2024-03-23T15:27:34;16.83;47.75
69944;DHT22;57257;48.408;-4.498;2024-03-23T15:29:59;16.57;48.60
69944;DHT22;57257;48.408;-4.498;2024-03-23T15:32:25;16.32;49.61
69944;DHT22;57257;48.408;-4.498;2024-03-23T15:34:50;16.20;50.02
69944;DHT22;57257;48.408;-4.498;2024-03-23T15:37:17;15.97;50.00
69944;DHT22;57257;48.408;-4.498;2024-03-23T15:39:43;15.79;50.48
69944;DHT22;57257;48.408;-4.498;2024-03-23T15:42:08;15.53;51.25
69944;DHT22;57257;48.408;-4.498;2024-03-23T15:44:33;15.36;51.41
69944;DHT22;57257;48.408;-4.498;2024-03-23T15:46:59;15.25;51.93
69944;DHT22;57257;48.408;-4.498;2024-03-23T15:49:24;15.09;52.37
69944;DHT22;57257;48.408;-4.498;2024-03-23T15:51:49;15.02;53.63
69944;DHT22;57257;48.408;-4.498;2024-03-23T15:54:15;14.96;54.87
69944;DHT22;57257;48.408;-4.498;2024-03-23T15:56:40;14.79;56.59
69944;DHT22;57257;48.408;-4.498;2024-03-23T15:59:06;14.58;58.61
69944;DHT22;57257;48.408;-4.498;2024-03-23T16:01:32;14.42;59.80
69944;DHT22;57257;48.408;-4.498;2024-03-23T16:04:02;14.31;59.31
69944;DHT22;57257;48.408;-4.498;2024-03-23T16:06:28;14.31;59.58
69944;DHT22;57257;48.408;-4.498;2024-03-23T16:08:53;14.23;59.68
69944;DHT22;57257;48.408;-4.498;2024-03-23T16:11:19;14.14;60.46
69944;DHT22;57257;48.408;-4.498;2024-03-23T16:13:45;14.12;60.49
69944;DHT22;57257;48.408;-4.498;2024-03-23T16:16:11;14.03;60.08
69944;DHT22;57257;48.408;-4.498;2024-03-23T16:18:38;13.89;60.47
69944;DHT22;57257;48.408;-4.498;2024-03-23T16:21:07;13.76;60.00
69944;DHT22;57257;48.408;-4.498;2024-03-23T16:23:33;13.70;59.89